createdAt,value
2023-04-02T00:01:47.261Z,7.80
2023-04-02T00:04:16.262Z,7.80
2023-04-02T00:06:46.477Z,7.70
2023-04-02T00:09:13.520Z,7.70
2023-04-02T00:11:44.507Z,7.80
2023-04-02T00:14:18.618Z,7.70
2023-04-02T00:16:46.784Z,7.70
2023-04-02T00:19:16.835Z,7.70
2023-04-02T00:21:44.342Z,7.70
2023-04-02T00:24:14.558Z,7.70
2023-04-02T00:26:45.532Z,7.70
2023-04-02T00:29:13.468Z,7.70
2023-04-02T00:31:48.205Z,7.60
2023-04-02T00:34:24.433Z,7.70
2023-04-02T00:36:51.972Z,7.60
2023-04-02T00:39:20.905Z,7.60
2023-04-02T00:41:48.011Z,7.60
2023-04-02T00:44:16.128Z,7.60
2023-04-02T00:46:49.580Z,7.60
2023-04-02T00:49:19.850Z,7.60
2023-04-02T00:51:46.884Z,7.60
2023-04-02T00:54:16.875Z,7.60
2023-04-02T00:56:44.750Z,7.50
2023-04-02T00:59:35.649Z,7.50
2023-04-02T01:02:17.276Z,7.50
2023-04-02T01:04:53.646Z,7.50
2023-04-02T01:07:23.357Z,7.50
2023-04-02T01:10:13.703Z,7.50
2023-04-02T01:12:44.930Z,7.50
2023-04-02T01:15:13.939Z,7.50
2023-04-02T01:17:48.656Z,7.50
2023-04-02T01:20:38.885Z,7.50
2023-04-02T01:23:17.350Z,7.50
2023-04-02T01:25:55.471Z,7.50
2023-04-02T01:28:24.579Z,7.50
2023-04-02T01:30:52.411Z,7.50
2023-04-02T01:33:28.218Z,7.50
2023-04-02T01:35:57.446Z,7.50
2023-04-02T01:38:27.256Z,7.50
2023-04-02T01:41:03.905Z,7.50
2023-04-02T01:43:38.764Z,7.50
2023-04-02T01:46:06.756Z,7.50
2023-04-02T01:48:33.950Z,7.50
2023-04-02T01:51:03.650Z,7.50
2023-04-02T01:53:30.950Z,7.50
2023-04-02T01:55:59.510Z,7.50
2023-04-02T01:58:28.295Z,7.50
2023-04-02T02:00:57.412Z,7.50
2023-04-02T02:03:24.894Z,7.50
2023-04-02T02:05:52.174Z,7.50
2023-04-02T02:08:38.117Z,7.50
2023-04-02T02:11:06.408Z,7.40
2023-04-02T02:13:33.612Z,7.50
2023-04-02T02:16:00.839Z,7.50
2023-04-02T02:18:28.074Z,7.40
2023-04-02T02:20:56.424Z,7.40
2023-04-02T02:23:23.523Z,7.40
2023-04-02T02:25:51.400Z,7.50
2023-04-02T02:28:24.041Z,7.40
2023-04-02T02:30:51.071Z,7.50
2023-04-02T02:33:37.201Z,7.50
2023-04-02T02:36:09.618Z,7.40
2023-04-02T02:38:53.252Z,7.40
2023-04-02T02:41:30.633Z,7.40
2023-04-02T02:44:04.502Z,7.40
2023-04-02T02:46:31.726Z,7.40
2023-04-02T02:48:59.468Z,7.40
2023-04-02T02:51:47.178Z,7.40
2023-04-02T02:54:19.812Z,7.40
2023-04-02T02:56:48.632Z,7.40
2023-04-02T02:59:17.044Z,7.40
2023-04-02T03:01:44.682Z,7.40
2023-04-02T03:04:12.088Z,7.40
2023-04-02T03:06:40.312Z,7.40
2023-04-02T03:09:19.110Z,7.30
2023-04-02T03:11:51.094Z,7.30
2023-04-02T03:14:27.102Z,7.40
2023-04-02T03:16:57.888Z,7.30
2023-04-02T03:19:44.747Z,7.30
2023-04-02T03:22:14.204Z,7.30
2023-04-02T03:24:56.035Z,7.30
2023-04-02T03:27:28.461Z,7.30
2023-04-02T03:30:10.216Z,7.30
2023-04-02T03:32:38.137Z,7.30
2023-04-02T03:35:32.166Z,7.30
2023-04-02T03:38:01.002Z,7.30
2023-04-02T03:40:32.036Z,7.30
2023-04-02T03:43:04.081Z,7.30
2023-04-02T03:45:36.698Z,7.20
2023-04-02T03:48:04.195Z,7.20
2023-04-02T03:50:34.676Z,7.20
2023-04-02T03:53:03.123Z,7.20
2023-04-02T03:55:30.885Z,7.30
2023-04-02T03:58:03.217Z,7.20
2023-04-02T04:00:35.949Z,7.20
2023-04-02T04:03:06.047Z,7.20
2023-04-02T04:05:36.926Z,7.20
2023-04-02T04:08:05.625Z,7.20
2023-04-02T04:10:32.717Z,7.20
2023-04-02T04:13:06.055Z,7.20
2023-04-02T04:15:35.582Z,7.20
2023-04-02T04:18:05.832Z,7.20
2023-04-02T04:20:46.068Z,7.20
2023-04-02T04:23:35.965Z,7.20
2023-04-02T04:26:19.783Z,7.20
2023-04-02T04:29:12.407Z,7.20
2023-04-02T04:31:49.718Z,7.20
2023-04-02T04:34:30.003Z,7.20
2023-04-02T04:37:01.551Z,7.10
2023-04-02T04:39:39.309Z,7.10
2023-04-02T04:42:06.467Z,7.10
2023-04-02T04:44:41.431Z,7.10
2023-04-02T04:47:20.034Z,7.10
2023-04-02T04:49:51.720Z,7.10
2023-04-02T04:52:20.937Z,7.10
2023-04-02T04:54:48.176Z,7.00
2023-04-02T04:57:33.491Z,7.10
2023-04-02T05:00:07.130Z,7.10
2023-04-02T05:02:38.484Z,7.00
2023-04-02T05:05:06.324Z,7.00
2023-04-02T05:07:36.895Z,7.00
2023-04-02T05:10:07.391Z,7.00
2023-04-02T05:12:42.311Z,7.00
2023-04-02T05:15:16.713Z,7.00
2023-04-02T05:17:56.061Z,7.00
2023-04-02T05:20:29.401Z,7.00
2023-04-02T05:22:59.719Z,7.00
2023-04-02T05:25:27.705Z,7.00
2023-04-02T05:28:14.650Z,7.00
2023-04-02T05:30:41.927Z,7.00
2023-04-02T05:33:17.951Z,7.00
2023-04-02T05:35:46.445Z,7.00
2023-04-02T05:38:19.252Z,7.00
2023-04-02T05:40:46.690Z,7.00
2023-04-02T05:43:15.649Z,7.00
2023-04-02T05:45:44.491Z,7.00
2023-04-02T05:48:18.806Z,7.00
2023-04-02T05:50:49.603Z,7.00
2023-04-02T05:53:40.266Z,7.00
2023-04-02T05:56:11.471Z,7.00
2023-04-02T05:58:41.982Z,7.00
2023-04-02T06:01:21.026Z,7.00
2023-04-02T06:04:16.263Z,7.00
2023-04-02T06:06:47.585Z,7.00
2023-04-02T06:09:21.843Z,7.00
2023-04-02T06:11:52.750Z,7.00
2023-04-02T06:14:20.015Z,7.00
2023-04-02T06:16:48.777Z,7.00
2023-04-02T06:19:20.795Z,7.10
2023-04-02T06:21:51.825Z,7.00
2023-04-02T06:24:22.852Z,7.00
2023-04-02T06:26:53.436Z,7.00
2023-04-02T06:29:20.965Z,7.00
2023-04-02T06:31:54.303Z,7.00
2023-04-02T06:34:26.475Z,7.00
2023-04-02T06:37:01.703Z,7.10
2023-04-02T06:39:30.126Z,7.10
2023-04-02T06:42:01.457Z,7.10
2023-04-02T06:44:48.976Z,7.10
2023-04-02T06:47:39.465Z,7.10
2023-04-02T06:50:13.431Z,7.10
2023-04-02T06:52:44.932Z,7.20
2023-04-02T06:55:21.734Z,7.20
2023-04-02T06:57:49.270Z,7.20
2023-04-02T07:00:28.608Z,7.30
2023-04-02T07:02:56.490Z,7.20
2023-04-02T07:05:23.873Z,7.30
2023-04-02T07:07:51.878Z,7.30
2023-04-02T07:10:20.243Z,7.30
2023-04-02T07:12:48.661Z,7.40
2023-04-02T07:15:16.917Z,7.40
2023-04-02T07:17:44.477Z,7.40
2023-04-02T07:20:30.849Z,7.50
2023-04-02T07:23:01.769Z,7.50
2023-04-02T07:25:28.965Z,7.60
2023-04-02T07:27:56.050Z,7.60
2023-04-02T07:30:23.228Z,7.60
2023-04-02T07:32:50.463Z,7.70
2023-04-02T07:35:17.611Z,7.70
2023-04-02T07:37:44.786Z,7.80
2023-04-02T07:40:17.377Z,7.80
2023-04-02T07:42:44.930Z,7.90
2023-04-02T07:45:12.232Z,7.90
2023-04-02T07:47:39.338Z,7.90
2023-04-02T07:50:08.175Z,7.90
2023-04-02T07:52:42.465Z,8.00
2023-04-02T07:55:12.492Z,8.00
2023-04-02T07:57:43.131Z,8.00
2023-04-02T08:00:12.008Z,8.10
2023-04-02T08:02:42.584Z,8.10
2023-04-02T08:05:10.446Z,8.20
2023-04-02T08:07:37.529Z,8.20
2023-04-02T08:10:04.975Z,8.20
2023-04-02T08:12:32.083Z,8.20
2023-04-02T08:14:59.200Z,8.20
2023-04-02T08:17:31.216Z,8.30
2023-04-02T08:20:01.676Z,8.30
2023-04-02T08:22:28.932Z,8.40
2023-04-02T08:24:56.399Z,8.40
2023-04-02T08:27:23.886Z,8.50
2023-04-02T08:29:51.173Z,8.50
2023-04-02T08:32:18.373Z,8.50
2023-04-02T08:34:45.472Z,8.50
2023-04-02T08:37:12.624Z,8.50
2023-04-02T08:39:39.764Z,8.60
2023-04-02T08:42:06.847Z,8.60
2023-04-02T08:44:49.175Z,8.70
2023-04-02T08:47:16.280Z,8.70
2023-04-02T08:49:45.171Z,8.80
2023-04-02T08:52:19.101Z,8.90
2023-04-02T08:54:46.285Z,8.90
2023-04-02T08:57:17.072Z,9.00
2023-04-02T08:59:44.320Z,9.10
2023-04-02T09:02:23.554Z,9.20
2023-04-02T09:04:50.956Z,9.20
2023-04-02T09:07:18.124Z,9.30
2023-04-02T09:09:47.005Z,9.30
2023-04-02T09:12:27.017Z,9.40
2023-04-02T09:15:00.104Z,9.50
2023-04-02T09:17:27.350Z,9.60
2023-04-02T09:19:56.148Z,9.70
2023-04-02T09:22:24.015Z,9.80
2023-04-02T09:24:54.604Z,9.80
2023-04-02T09:27:22.501Z,9.90
2023-04-02T09:29:51.780Z,10.00
2023-04-02T09:32:19.191Z,10.10
2023-04-02T09:34:46.233Z,10.20
2023-04-02T09:37:17.227Z,10.30
2023-04-02T09:39:44.287Z,10.40
2023-04-02T09:42:31.426Z,10.30
2023-04-02T09:45:14.901Z,10.30
2023-04-02T09:47:42.553Z,10.40
2023-04-02T09:50:13.529Z,10.50
2023-04-02T09:52:40.787Z,10.50
2023-04-02T09:55:18.629Z,10.40
2023-04-02T09:57:46.365Z,10.40
2023-04-02T10:00:25.286Z,10.30
2023-04-02T10:03:03.646Z,10.20
2023-04-02T10:05:40.459Z,10.20
2023-04-02T10:08:13.453Z,10.20
2023-04-02T10:10:44.853Z,10.20
2023-04-02T10:13:28.843Z,10.20
2023-04-02T10:15:56.053Z,10.10
2023-04-02T10:18:28.324Z,10.10
2023-04-02T10:20:55.746Z,10.10
2023-04-02T10:23:24.097Z,10.10
2023-04-02T10:26:03.670Z,10.10
2023-04-02T10:28:38.281Z,10.30
2023-04-02T10:31:11.287Z,10.40
2023-04-02T10:33:38.498Z,10.60
2023-04-02T10:36:13.252Z,10.70
2023-04-02T10:38:44.548Z,10.80
2023-04-02T10:41:11.560Z,11.00
2023-04-02T10:43:52.831Z,11.00
2023-04-02T10:46:25.570Z,11.10
2023-04-02T10:49:11.946Z,11.00
2023-04-02T10:51:48.601Z,11.10
2023-04-02T10:54:35.592Z,11.00
2023-04-02T10:57:24.148Z,11.00
2023-04-02T10:59:56.263Z,11.00
2023-04-02T11:02:30.057Z,11.00
2023-04-02T11:04:58.530Z,10.90
2023-04-02T11:07:27.737Z,10.80
2023-04-02T11:09:55.054Z,10.80
2023-04-02T11:12:41.490Z,10.70
2023-04-02T11:15:18.408Z,10.60
2023-04-02T11:17:45.832Z,10.60
2023-04-02T11:20:33.986Z,10.60
2023-04-02T11:23:19.483Z,10.60
2023-04-02T11:25:46.681Z,10.50
2023-04-02T11:28:14.809Z,10.50
2023-04-02T11:30:42.523Z,10.50
2023-04-02T11:33:34.078Z,10.50
2023-04-02T11:36:03.153Z,10.50
2023-04-02T11:38:47.784Z,10.50
2023-04-02T11:41:14.964Z,10.60
2023-04-02T11:43:41.996Z,10.60
2023-04-02T11:46:32.508Z,10.60
2023-04-02T11:49:18.470Z,10.60
2023-04-02T11:51:48.158Z,10.70
2023-04-02T11:54:25.734Z,10.80
2023-04-02T11:56:55.740Z,11.00
2023-04-02T11:59:28.208Z,11.20
2023-04-02T12:01:55.317Z,11.40
2023-04-02T12:04:40.718Z,11.40
2023-04-02T12:07:12.922Z,11.40
2023-04-02T12:09:49.651Z,11.30
2023-04-02T12:12:33.194Z,11.30
2023-04-02T12:15:00.555Z,11.30
2023-04-02T12:17:39.882Z,11.20
2023-04-02T12:24:07.169Z,11.30
2023-04-02T12:26:46.513Z,11.40
2023-04-02T12:29:16.620Z,11.40
2023-04-02T12:31:44.994Z,11.40
2023-04-02T12:34:19.054Z,11.40
2023-04-02T12:36:52.796Z,11.40
2023-04-02T12:39:19.872Z,11.40
2023-04-02T12:41:46.933Z,11.30
2023-04-02T12:44:23.640Z,11.20
2023-04-02T12:46:50.801Z,11.00
2023-04-02T12:49:31.585Z,10.90
2023-04-02T12:51:58.714Z,10.80
2023-04-02T12:54:25.902Z,10.60
2023-04-02T12:56:53.000Z,10.50
2023-04-02T12:59:30.589Z,10.40
2023-04-02T13:01:58.910Z,10.40
2023-04-02T13:04:26.525Z,10.30
2023-04-02T13:06:56.719Z,10.30
2023-04-02T13:09:34.843Z,10.30
2023-04-02T13:12:02.044Z,10.20
2023-04-02T13:14:29.139Z,10.10
2023-04-02T13:16:56.530Z,10.10
2023-04-02T13:19:26.075Z,10.10
2023-04-02T13:21:53.392Z,10.10
2023-04-02T13:24:24.245Z,10.00
2023-04-02T13:26:53.176Z,10.10
2023-04-02T13:29:21.752Z,10.00
2023-04-02T13:31:48.912Z,10.00
2023-04-02T13:34:16.812Z,9.90
2023-04-02T13:36:44.232Z,9.90
2023-04-02T13:39:11.304Z,9.90
2023-04-02T13:41:45.001Z,9.90
2023-04-02T13:44:22.105Z,9.80
2023-04-02T13:46:49.206Z,9.80
2023-04-02T13:49:16.364Z,9.70
2023-04-02T13:51:46.857Z,9.70
2023-04-02T13:54:18.846Z,9.80
2023-04-02T13:56:46.685Z,9.80
2023-04-02T13:59:13.910Z,9.80
2023-04-02T14:01:41.299Z,9.80
2023-04-02T14:04:08.945Z,9.80
2023-04-02T14:06:41.030Z,9.80
2023-04-02T14:09:08.135Z,9.70
2023-04-02T14:11:53.001Z,9.60
2023-04-02T14:14:30.124Z,9.60
2023-04-02T14:16:57.241Z,9.50
2023-04-02T14:19:39.683Z,9.50
2023-04-02T14:22:39.159Z,9.50
2023-04-02T14:25:25.134Z,9.40
2023-04-02T14:28:02.031Z,9.40
2023-04-02T14:30:47.423Z,9.40
2023-04-02T14:33:14.516Z,9.40
2023-04-02T14:35:46.140Z,9.50
2023-04-02T14:38:29.334Z,9.40
2023-04-02T14:41:00.357Z,9.30
2023-04-02T14:43:30.453Z,9.20
2023-04-02T14:46:00.885Z,9.10
2023-04-02T14:48:28.107Z,9.00
2023-04-02T14:50:57.580Z,9.00
2023-04-02T14:53:27.237Z,8.90
2023-04-02T14:55:54.736Z,8.90
2023-04-02T14:58:31.156Z,8.90
2023-04-02T15:00:58.160Z,8.80
2023-04-02T15:03:25.845Z,8.80
2023-04-02T15:05:54.262Z,8.70
2023-04-02T15:08:31.993Z,8.80
2023-04-02T15:11:05.861Z,8.80
2023-04-02T15:13:45.314Z,8.80
2023-04-02T15:16:19.571Z,8.80
2023-04-02T15:18:49.915Z,8.80
2023-04-02T15:21:29.303Z,8.80
2023-04-02T15:24:01.314Z,8.80
2023-04-02T15:26:41.035Z,8.80
2023-04-02T15:29:22.254Z,8.80
2023-04-02T15:32:01.093Z,8.80
2023-04-02T15:34:32.661Z,8.80
2023-04-02T15:37:02.405Z,8.80
2023-04-02T15:39:36.017Z,8.80
2023-04-02T15:42:05.327Z,8.70
2023-04-02T15:44:32.331Z,8.70
2023-04-02T15:47:08.515Z,8.60
2023-04-02T15:49:42.677Z,8.60
2023-04-02T15:52:12.059Z,8.60
2023-04-02T15:54:45.226Z,8.60
2023-04-02T15:57:18.227Z,8.60
2023-04-02T15:59:56.286Z,8.50
2023-04-02T16:02:36.659Z,8.50
2023-04-02T16:05:22.491Z,8.50
2023-04-02T16:07:49.538Z,8.40
2023-04-02T16:10:37.793Z,8.40
2023-04-02T16:13:13.641Z,8.40
2023-04-02T16:15:42.351Z,8.40
2023-04-02T16:18:14.736Z,8.30
2023-04-02T16:20:43.630Z,8.30
2023-04-02T16:23:24.516Z,8.20
2023-04-02T16:25:59.139Z,8.20
2023-04-02T16:28:31.107Z,8.20
2023-04-02T16:31:08.470Z,8.10
2023-04-02T16:33:39.300Z,8.10
2023-04-02T16:36:25.565Z,8.00
2023-04-02T16:38:55.903Z,8.00
2023-04-02T16:41:30.368Z,7.90
2023-04-02T16:44:00.648Z,7.90
2023-04-02T16:46:38.821Z,7.80
2023-04-02T16:49:24.702Z,7.80
2023-04-02T16:52:10.655Z,7.80
2023-04-02T16:54:44.513Z,7.80
2023-04-02T16:57:19.458Z,7.70
2023-04-02T16:59:52.345Z,7.70
2023-04-02T17:02:39.835Z,7.70
2023-04-02T17:05:07.125Z,7.60
2023-04-02T17:07:43.573Z,7.60
2023-04-02T17:10:30.150Z,7.50
2023-04-02T17:13:08.855Z,7.50
2023-04-02T17:15:39.332Z,7.30
2023-04-02T17:18:24.548Z,7.20
2023-04-02T17:20:51.692Z,7.20
2023-04-02T17:23:18.998Z,7.10
2023-04-02T17:25:50.917Z,7.00
2023-04-02T17:28:19.560Z,7.00
2023-04-02T17:30:48.106Z,7.00
2023-04-02T17:33:16.017Z,7.00
2023-04-02T17:36:02.944Z,7.00
2023-04-02T17:38:39.384Z,6.90
2023-04-02T17:41:09.839Z,6.80
2023-04-02T17:43:43.044Z,6.80
2023-04-02T17:46:40.729Z,6.80
2023-04-02T17:49:26.377Z,6.90
2023-04-02T17:52:02.759Z,6.80
2023-04-02T17:54:37.032Z,6.80
2023-04-02T17:57:07.131Z,6.70
2023-04-02T17:59:43.702Z,6.70
2023-04-02T18:02:30.086Z,6.50
2023-04-02T18:05:12.432Z,6.40
2023-04-02T18:07:42.539Z,6.30
2023-04-02T18:10:25.021Z,6.20
2023-04-02T18:12:52.174Z,6.10
2023-04-02T18:15:19.275Z,6.10
2023-04-02T18:17:53.384Z,6.00
2023-04-02T18:20:37.189Z,5.90
2023-04-02T18:23:05.276Z,5.90
2023-04-02T18:25:38.569Z,5.90
2023-04-02T18:28:20.951Z,5.90
2023-04-02T18:30:50.854Z,5.90
2023-04-02T18:33:24.246Z,5.90
2023-04-02T18:36:18.616Z,5.90
2023-04-02T18:38:51.811Z,5.90
2023-04-02T18:41:26.994Z,5.80
2023-04-02T18:44:01.479Z,5.80
2023-04-02T18:46:36.454Z,5.70
2023-04-02T18:49:03.725Z,5.70
2023-04-02T18:51:32.367Z,5.70
2023-04-02T18:54:08.474Z,5.60
2023-04-02T18:56:39.051Z,5.60
2023-04-02T18:59:06.303Z,5.60
2023-04-02T19:01:35.839Z,5.60
2023-04-02T19:04:06.911Z,5.60
2023-04-02T19:06:38.170Z,5.50
2023-04-02T19:09:15.206Z,5.50
2023-04-02T19:11:42.323Z,5.30
2023-04-02T19:14:19.374Z,5.30
2023-04-02T19:17:02.534Z,5.30
2023-04-02T19:19:35.717Z,5.30
2023-04-02T19:22:11.949Z,5.30
2023-04-02T19:24:39.086Z,5.30
2023-04-02T19:27:07.425Z,5.20
2023-04-02T19:29:37.553Z,5.20
2023-04-02T19:32:08.072Z,5.20
2023-04-02T19:34:38.397Z,5.10
2023-04-02T19:37:24.404Z,5.00
2023-04-02T19:39:58.781Z,5.00
2023-04-02T19:42:45.602Z,4.90
2023-04-02T19:45:18.820Z,4.90
2023-04-02T19:47:46.163Z,5.00
2023-04-02T19:50:13.277Z,4.90
2023-04-02T19:52:40.908Z,4.80
2023-04-02T19:55:08.184Z,4.80
2023-04-02T19:57:35.272Z,4.80
2023-04-02T20:00:02.359Z,4.80
2023-04-02T20:02:39.086Z,4.70
2023-04-02T20:05:06.573Z,4.70
2023-04-02T20:07:33.621Z,4.60
2023-04-02T20:10:00.834Z,4.70
2023-04-02T20:12:27.874Z,4.60
2023-04-02T20:14:54.921Z,4.60
2023-04-02T20:17:22.001Z,4.60
2023-04-02T20:19:49.058Z,4.50
2023-04-02T20:22:16.397Z,4.50
2023-04-02T20:24:43.469Z,4.40
2023-04-02T20:27:10.889Z,4.40
2023-04-02T20:29:39.512Z,4.30
2023-04-02T20:32:06.723Z,4.30
2023-04-02T20:34:33.786Z,4.40
2023-04-02T20:37:01.008Z,4.30
2023-04-02T20:39:28.855Z,4.20
2023-04-02T20:42:00.817Z,4.10
2023-04-02T20:44:28.416Z,4.00
2023-04-02T20:46:55.676Z,4.00
2023-04-02T20:49:22.890Z,4.00
2023-04-02T20:51:51.014Z,3.90
2023-04-02T20:54:18.075Z,3.90
2023-04-02T20:56:45.304Z,3.90
2023-04-02T20:59:12.384Z,3.90
2023-04-02T21:01:39.520Z,3.80
2023-04-02T21:04:06.674Z,3.80
2023-04-02T21:06:34.853Z,3.70
2023-04-02T21:09:02.308Z,3.70
2023-04-02T21:11:29.345Z,3.70
2023-04-02T21:13:56.487Z,3.60
2023-04-02T21:16:24.360Z,3.60
2023-04-02T21:18:51.818Z,3.60
2023-04-02T21:21:19.290Z,3.50
2023-04-02T21:23:46.372Z,3.50
2023-04-02T21:26:14.734Z,3.50
2023-04-02T21:28:41.997Z,3.50
2023-04-02T21:31:10.800Z,3.50
2023-04-02T21:33:48.189Z,3.50
2023-04-02T21:36:16.535Z,3.60
2023-04-02T21:38:46.179Z,3.60
2023-04-02T21:41:23.189Z,3.60
2023-04-02T21:43:50.418Z,3.60
2023-04-02T21:46:18.241Z,3.50
2023-04-02T21:48:45.580Z,3.50
2023-04-02T21:51:13.580Z,3.50
2023-04-02T21:53:40.754Z,3.40
2023-04-02T21:56:08.643Z,3.40
2023-04-02T21:58:35.717Z,3.30
2023-04-02T22:01:04.275Z,3.20
2023-04-02T22:03:33.711Z,3.10
2023-04-02T22:06:01.861Z,3.00
2023-04-02T22:08:28.952Z,3.00
2023-04-02T22:10:56.039Z,3.00
2023-04-02T22:13:23.234Z,3.00
2023-04-02T22:15:50.742Z,3.00
2023-04-02T22:18:17.813Z,3.00
2023-04-02T22:20:45.169Z,3.00
2023-04-02T22:23:12.302Z,3.00
2023-04-02T22:25:39.381Z,3.00
2023-04-02T22:28:06.592Z,3.00
2023-04-02T22:30:34.009Z,3.00
2023-04-02T22:33:01.730Z,3.00
2023-04-02T22:35:30.346Z,2.90
2023-04-02T22:37:57.537Z,2.90
2023-04-02T22:40:25.895Z,2.80
2023-04-02T22:42:53.035Z,2.80
2023-04-02T22:45:21.261Z,2.80
2023-04-02T22:47:48.695Z,2.80
2023-04-02T22:50:16.271Z,2.80
2023-04-02T22:52:43.366Z,2.80
2023-04-02T22:55:10.702Z,2.80
2023-04-02T22:57:37.762Z,2.80
2023-04-02T23:00:06.025Z,2.80
2023-04-02T23:02:33.138Z,2.90
2023-04-02T23:05:00.510Z,2.90
2023-04-02T23:07:27.791Z,2.90
2023-04-02T23:09:54.917Z,2.90
2023-04-02T23:12:21.975Z,2.90
2023-04-02T23:14:49.089Z,2.90
2023-04-02T23:17:16.171Z,2.90
2023-04-02T23:19:43.290Z,2.90
2023-04-02T23:22:10.398Z,2.90
2023-04-02T23:24:37.499Z,2.90
2023-04-02T23:27:04.547Z,2.90
2023-04-02T23:29:31.581Z,2.80
2023-04-02T23:31:58.669Z,2.80
2023-04-02T23:34:25.898Z,2.80
2023-04-02T23:36:52.935Z,2.80
2023-04-02T23:39:20.387Z,2.80
2023-04-02T23:41:48.933Z,2.90
2023-04-02T23:44:15.948Z,2.90
2023-04-02T23:46:43.040Z,2.90
2023-04-02T23:49:11.481Z,2.80
2023-04-02T23:51:38.612Z,2.80
2023-04-02T23:54:05.751Z,2.80
2023-04-02T23:56:32.880Z,2.90
2023-04-02T23:58:59.914Z,2.80
